Ebeye, MH

4:13 PM MHT on September 21, 2014 (GMT +1200)
Rota I International | Change Station
CLOSE
Current Station
Airport
Location: Rota,
Elevation: 607 ft
Nearby Weather Stations

Elev 607 ft 14.17 °N, 145.24 °E | Updated 23 minutes ago

Mostly Cloudy
Mostly Cloudy
82 °F
Feels Like 92 °F
N
12
Wind Variable Wind from ENE

Today
High -- | Low -- °F
--% Chance of Precip.
Yesterday
High -- | Low -- °F
Precip. -- in
6:25 AM 6:32 PM
Waning Crescent, 9% visible
Pressure 29.78 in
Visibility 7.0 miles
Clouds Few 2500 ft
Mostly Cloudy 8000 ft
Heat Index 92 °F
Dew Point 79 °F
Humidity 89%
Rainfall 0.00 in
Snow Depth Not available.
UV 8 out of 12
Pollen Not available.
Air Quality Not available.
Flu Activity Not available.
METAR PGRO 210350Z 07010KT 7SM FEW025 BKN080 28/26 A2978

More Conditions Fewer Conditions

Pressure 29.78 in
Visibility 7.0 miles
Clouds Few 2500 ft
Mostly Cloudy 8000 ft
Heat Index 92 °F
Dew Point 79 °F
Humidity 89%
Rainfall 0.00 in
Snow Depth Not available.
UV 8 out of 12
Pollen Not available.
Air Quality Not available.
Flu Activity Not available.
METAR PGRO 210350Z 07010KT 7SM FEW025 BKN080 28/26 A2978

More Conditions Fewer Conditions

10-Day Weather Forecast

Almanac

Astronomy

Sep. 21, 2014 Rise Set
Actual Time 6:25 AM MHT 6:32 PM MHT
Civil Twilight 6:04 AM MHT 6:53 PM MHT
Nautical Twilight 5:40 AM MHT 7:17 PM MHT
Astronomical Twilight 5:16 AM MHT 7:41 PM MHT
Moon 3:49 AM MHT 4:20 PM MHT
Length of Visible Light 12h 48m
Length of Day
12h 07m
Tomorrow will be 0m 23s shorter.
Waning Crescent, 9% of the Moon is Illuminated
Today
Waning Crescent
Sep 24
New
Oct 1
First Quarter
Oct 8
Full
Oct 15
Last Quarter

Community

WunderPhotos

Upload Photos

1,755,081 photos uploaded!

Nearby

Snow Depth

Station Depth Elevation
No new snow has been reported.

Earthquake Activity

City Distance Mag. Time & Date
No recent earthquake activity has been reported nearby.
Minimum magnitude displayed is 2.5.

Coastal Water Temperatures

Place Temperature
No Stations Reporting

Nearby Weather Stations